createdAt,value
2018-08-11T00:00:46.438Z,63.41
2018-08-11T00:01:55.083Z,63.12
2018-08-11T00:03:03.734Z,63.32
2018-08-11T00:04:12.377Z,63.32
2018-08-11T00:05:21.026Z,63.96
2018-08-11T00:06:29.670Z,64.18
2018-08-11T00:07:38.319Z,64.43
2018-08-11T00:08:46.964Z,64.05
2018-08-11T00:09:55.615Z,64.05
2018-08-11T00:11:04.261Z,64.72
2018-08-11T00:12:12.912Z,65.01
2018-08-11T00:13:21.559Z,64.82
2018-08-11T00:14:30.203Z,64.53
2018-08-11T00:15:38.848Z,64.92
2018-08-11T00:16:47.493Z,65.11
2018-08-11T00:17:56.142Z,65.01
2018-08-11T00:19:04.788Z,65.01
2018-08-11T00:20:13.439Z,65.2
2018-08-11T00:21:22.076Z,65.01
2018-08-11T00:22:30.730Z,64.82
2018-08-11T00:23:39.373Z,64.92
2018-08-11T00:24:48.023Z,64.72
2018-08-11T00:25:56.925Z,64.56
2018-08-11T00:27:05.839Z,65.3
2018-08-11T00:28:14.485Z,65.3
2018-08-11T00:29:23.133Z,65.3
2018-08-11T00:30:31.773Z,65.3
2018-08-11T00:31:40.422Z,65.69
2018-08-11T00:32:49.066Z,65.49
2018-08-11T00:33:57.715Z,65.4
2018-08-11T00:35:06.363Z,65.4
2018-08-11T00:36:15.005Z,65.88
2018-08-11T00:37:23.959Z,66.26
2018-08-11T00:38:32.865Z,65.59
2018-08-11T00:39:41.516Z,65.69
2018-08-11T00:40:50.159Z,66.36
2018-08-11T00:41:59.072Z,67.32
2018-08-11T00:43:07.712Z,68.08
2018-08-11T00:44:16.367Z,69.43
2018-08-11T00:45:25.001Z,70.87
2018-08-11T00:46:33.654Z,71.45
2018-08-11T00:47:42.293Z,71.83
2018-08-11T00:48:50.949Z,72.41
2018-08-11T00:49:59.594Z,73.08
2018-08-11T00:51:08.236Z,73.46
2018-08-11T00:52:16.880Z,74.52
2018-08-11T00:53:25.525Z,74.43
2018-08-11T00:54:34.179Z,75
2018-08-11T00:55:42.820Z,74.9
2018-08-11T00:56:51.733Z,75.48
2018-08-11T00:58:00.370Z,75.67
2018-08-11T00:59:09.024Z,75.48
2018-08-11T01:00:17.923Z,76.73
2018-08-11T01:01:26.572Z,77.88
2018-08-11T01:02:35.472Z,78.08
2018-08-11T01:03:44.126Z,78.27
2018-08-11T01:04:52.769Z,79.13
2018-08-11T01:06:01.417Z,79.71
2018-08-11T01:07:10.066Z,80.43
2018-08-11T01:08:18.701Z,80.82
2018-08-11T01:09:27.618Z,80.63
2018-08-11T01:10:36.300Z,81.49
2018-08-11T01:11:44.915Z,81.49
2018-08-11T01:12:53.550Z,81.2
2018-08-11T01:14:02.468Z,81.87
2018-08-11T01:15:11.372Z,82.54
2018-08-11T01:16:20.033Z,83.22
2018-08-11T01:17:28.669Z,83.41
2018-08-11T01:18:37.322Z,83.56
2018-08-11T01:19:45.963Z,84.42
2018-08-11T01:20:54.619Z,84.81
2018-08-11T01:22:03.520Z,86.05
2018-08-11T01:23:12.166Z,86.72
2018-08-11T01:24:20.811Z,86.34
2018-08-11T01:25:29.465Z,87.4
2018-08-11T01:26:38.112Z,88.17
2018-08-11T01:27:46.749Z,88.79
2018-08-11T01:28:55.931Z,90.23
2018-08-11T01:30:04.580Z,91.86
2018-08-11T01:31:13.231Z,91.82
2018-08-11T01:32:21.871Z,91.72
2018-08-11T01:33:30.527Z,92.3
2018-08-11T01:34:39.155Z,92.87
2018-08-11T01:35:47.808Z,94.26
2018-08-11T01:36:56.447Z,94.17
2018-08-11T01:38:05.099Z,93.78
2018-08-11T01:39:13.745Z,94.55
2018-08-11T01:40:22.381Z,94.07
2018-08-11T01:41:31.029Z,94.45
2018-08-11T01:42:39.671Z,94.64
2018-08-11T01:43:48.319Z,96.08
2018-08-11T01:44:56.963Z,95.22
2018-08-11T01:46:05.864Z,94.93
2018-08-11T01:47:14.507Z,94.89
2018-08-11T01:48:23.148Z,95.65
2018-08-11T01:49:32.067Z,96.51
2018-08-11T01:50:40.710Z,96.61
2018-08-11T01:51:49.622Z,97.28
2018-08-11T01:52:58.261Z,97.38
2018-08-11T01:54:07.188Z,97.18
2018-08-11T01:55:15.832Z,97.61
2018-08-11T01:56:24.479Z,98.14
2018-08-11T01:57:33.119Z,97.8
2018-08-11T01:58:41.771Z,98.57
2018-08-11T01:59:50.415Z,98
2018-08-11T02:00:59.059Z,97.9
2018-08-11T02:02:07.694Z,98.47
2018-08-11T02:03:16.341Z,98.95
2018-08-11T02:04:24.990Z,98.66
2018-08-11T02:05:33.636Z,98.86
2018-08-11T02:06:42.281Z,98.76
2018-08-11T02:07:50.916Z,99.52
2018-08-11T02:08:59.565Z,99.43
2018-08-11T02:10:08.207Z,99.52
2018-08-11T02:11:16.925Z,99.99
2018-08-11T02:12:25.493Z,99.99
2018-08-11T02:13:34.141Z,99.99
2018-08-11T02:14:43.044Z,99.99
2018-08-11T02:15:51.699Z,99.99
2018-08-11T02:17:00.332Z,99.99
2018-08-11T02:18:08.977Z,99.99
2018-08-11T02:19:17.620Z,99.99
2018-08-11T02:20:26.274Z,99.99
2018-08-11T02:21:34.917Z,99.99
2018-08-11T02:22:43.557Z,99.99
2018-08-11T02:23:52.467Z,99.99
2018-08-11T02:25:01.110Z,99.99
2018-08-11T02:26:10.025Z,99.99
2018-08-11T02:27:18.665Z,99.99
2018-08-11T02:28:27.312Z,99.99
2018-08-11T02:29:35.946Z,99.99
2018-08-11T02:30:44.601Z,99.99
2018-08-11T02:31:53.241Z,99.99
2018-08-11T02:33:01.895Z,99.99
2018-08-11T02:34:10.608Z,99.99
2018-08-11T02:35:19.463Z,99.99
2018-08-11T02:36:28.372Z,99.99
2018-08-11T02:37:37.025Z,99.99
2018-08-11T02:38:45.664Z,99.99
2018-08-11T02:39:54.314Z,99.99
2018-08-11T02:41:03.229Z,99.99
2018-08-11T02:42:12.139Z,99.99
2018-08-11T02:43:20.787Z,99.99
2018-08-11T02:44:29.436Z,99.99
2018-08-11T02:45:38.083Z,99.99
2018-08-11T02:46:46.995Z,99.99
2018-08-11T02:47:55.643Z,99.99
2018-08-11T02:49:04.281Z,99.99
2018-08-11T02:50:13.193Z,99.99
2018-08-11T02:51:21.836Z,99.99
2018-08-11T02:52:30.491Z,99.99
2018-08-11T02:53:39.128Z,99.99
2018-08-11T02:54:48.040Z,99.99
2018-08-11T02:55:56.950Z,99.99
2018-08-11T02:57:05.865Z,99.99
2018-08-11T02:58:14.510Z,99.99
2018-08-11T02:59:23.157Z,99.99
2018-08-11T03:00:32.082Z,99.99
2018-08-11T03:01:40.729Z,99.99
2018-08-11T03:02:49.913Z,99.99
2018-08-11T03:03:58.822Z,99.99
2018-08-11T03:05:07.474Z,99.99
2018-08-11T03:06:16.385Z,99.99
2018-08-11T03:07:25.036Z,99.99
2018-08-11T03:08:33.678Z,99.99
2018-08-11T03:09:42.327Z,99.99
2018-08-11T03:10:50.967Z,99.99
2018-08-11T03:11:59.875Z,99.99
2018-08-11T03:13:08.780Z,99.99
2018-08-11T03:14:17.433Z,99.99
2018-08-11T03:15:26.336Z,99.99
2018-08-11T03:16:35.248Z,99.99
2018-08-11T03:17:44.425Z,99.99
2018-08-11T03:18:53.334Z,99.99
2018-08-11T03:20:01.987Z,99.99
2018-08-11T03:21:10.626Z,99.99
2018-08-11T03:22:19.270Z,99.99
2018-08-11T03:23:28.178Z,99.99
2018-08-11T03:24:37.092Z,99.99
2018-08-11T03:25:45.732Z,99.99
2018-08-11T03:26:54.643Z,99.99
2018-08-11T03:28:03.290Z,99.99
2018-08-11T03:29:11.938Z,99.99
2018-08-11T03:30:20.583Z,99.99
2018-08-11T03:31:29.494Z,99.99
2018-08-11T03:32:38.141Z,99.99
2018-08-11T03:33:46.786Z,99.99
2018-08-11T03:34:55.428Z,99.99
2018-08-11T03:36:04.344Z,99.99
2018-08-11T03:37:13.241Z,99.99
2018-08-11T03:38:21.884Z,99.99
2018-08-11T03:39:30.530Z,99.99
2018-08-11T03:40:39.174Z,99.99
2018-08-11T03:41:47.818Z,99.99
2018-08-11T03:42:56.455Z,99.99
2018-08-11T03:44:05.104Z,99.99
2018-08-11T03:45:14.003Z,99.99
2018-08-11T03:46:22.646Z,99.99
2018-08-11T03:47:31.287Z,99.99
2018-08-11T03:48:39.940Z,99.99
2018-08-11T03:49:48.582Z,99.99
2018-08-11T03:50:57.227Z,99.99
2018-08-11T03:52:05.864Z,99.99
2018-08-11T03:53:14.508Z,99.99
2018-08-11T03:54:23.152Z,99.99
2018-08-11T03:55:31.799Z,99.99
2018-08-11T03:56:40.446Z,99.99
2018-08-11T03:57:49.100Z,99.99
2018-08-11T03:58:57.726Z,99.99
2018-08-11T04:00:06.368Z,99.99
2018-08-11T04:01:15.017Z,99.99
2018-08-11T04:02:23.913Z,99.99
2018-08-11T04:03:32.819Z,99.99
2018-08-11T04:04:41.465Z,99.99
2018-08-11T04:05:50.112Z,99.99
2018-08-11T04:06:58.751Z,99.99
2018-08-11T04:08:07.397Z,99.99
2018-08-11T04:09:16.038Z,99.99
2018-08-11T04:10:24.686Z,99.99
2018-08-11T04:11:33.325Z,99.99
2018-08-11T04:12:41.973Z,99.99
2018-08-11T04:13:50.874Z,99.99
2018-08-11T04:14:59.515Z,99.99
2018-08-11T04:16:08.164Z,99.99
2018-08-11T04:17:16.810Z,99.99
2018-08-11T04:18:25.759Z,99.99
2018-08-11T04:19:34.401Z,99.99
2018-08-11T04:20:43.049Z,99.99
2018-08-11T04:21:51.692Z,99.99
2018-08-11T04:23:00.335Z,99.99
2018-08-11T04:24:09.234Z,99.99
2018-08-11T04:25:17.883Z,99.99
2018-08-11T04:26:26.523Z,99.99
2018-08-11T04:27:35.171Z,99.99
2018-08-11T04:28:43.810Z,99.99
2018-08-11T04:29:52.457Z,99.99
2018-08-11T04:31:01.368Z,99.99
2018-08-11T04:32:10.015Z,99.99
2018-08-11T04:33:18.974Z,99.99
2018-08-11T04:34:27.568Z,99.99
2018-08-11T04:35:36.517Z,99.99
2018-08-11T04:36:45.114Z,99.99
2018-08-11T04:37:53.767Z,99.99
2018-08-11T04:39:02.669Z,99.99
2018-08-11T04:40:11.313Z,99.99
2018-08-11T04:41:20.218Z,99.99
2018-08-11T04:42:28.869Z,99.99
2018-08-11T04:43:37.504Z,99.99
2018-08-11T04:44:46.149Z,99.99
2018-08-11T04:45:54.790Z,99.99
2018-08-11T04:47:03.442Z,99.99
2018-08-11T04:48:12.088Z,99.99
2018-08-11T04:49:20.728Z,99.99
2018-08-11T04:50:29.369Z,99.99
2018-08-11T04:51:38.011Z,99.99
2018-08-11T04:52:46.663Z,99.99
2018-08-11T04:53:55.304Z,99.99
2018-08-11T04:55:03.952Z,99.99
2018-08-11T04:56:12.856Z,99.99
2018-08-11T04:57:21.512Z,99.99
2018-08-11T04:58:30.155Z,99.99
2018-08-11T04:59:38.797Z,99.99
2018-08-11T05:00:47.491Z,99.99
2018-08-11T05:01:56.347Z,99.99
2018-08-11T05:03:04.990Z,99.99
2018-08-11T05:04:13.635Z,99.99
2018-08-11T05:05:22.277Z,99.99
2018-08-11T05:06:30.916Z,99.99
2018-08-11T05:07:39.567Z,99.99
2018-08-11T05:08:48.479Z,99.99
2018-08-11T05:09:57.125Z,99.99
2018-08-11T05:11:05.760Z,99.99
2018-08-11T05:12:14.408Z,99.99
2018-08-11T05:13:23.042Z,99.99
2018-08-11T05:14:31.695Z,99.99
2018-08-11T05:15:40.327Z,99.99
2018-08-11T05:16:49.241Z,99.99
2018-08-11T05:17:57.880Z,99.99
2018-08-11T05:19:06.532Z,99.99
2018-08-11T05:20:15.165Z,99.99
2018-08-11T05:21:23.812Z,99.99
2018-08-11T05:22:32.453Z,99.99
2018-08-11T05:23:41.106Z,99.99
2018-08-11T05:24:49.747Z,99.99
2018-08-11T05:25:58.648Z,99.99
2018-08-11T05:27:07.291Z,99.99
2018-08-11T05:28:15.935Z,99.99
2018-08-11T05:29:24.588Z,99.99
2018-08-11T05:30:33.229Z,99.99
2018-08-11T05:31:42.148Z,99.99
2018-08-11T05:32:50.784Z,99.99
2018-08-11T05:33:59.428Z,99.99
2018-08-11T05:35:08.075Z,99.99
2018-08-11T05:36:16.716Z,99.99
2018-08-11T05:37:25.374Z,99.99
2018-08-11T05:38:34.008Z,99.99
2018-08-11T05:39:42.656Z,99.99
2018-08-11T05:40:51.575Z,99.99
2018-08-11T05:42:00.485Z,99.99
2018-08-11T05:43:09.129Z,99.99
2018-08-11T05:44:17.771Z,99.99
2018-08-11T05:45:26.671Z,99.99
2018-08-11T05:46:35.572Z,99.99
2018-08-11T05:47:44.229Z,99.99
2018-08-11T05:48:53.132Z,99.99
2018-08-11T05:50:01.785Z,99.99
2018-08-11T05:51:10.416Z,99.99
2018-08-11T05:52:19.068Z,99.99
2018-08-11T05:53:27.708Z,99.99
2018-08-11T05:54:36.623Z,99.99
2018-08-11T05:55:45.252Z,99.99
2018-08-11T05:56:53.905Z,99.99
2018-08-11T05:58:02.547Z,99.99
2018-08-11T05:59:11.200Z,99.99
2018-08-11T06:00:20.100Z,99.99
2018-08-11T06:01:28.750Z,99.99
2018-08-11T06:02:37.662Z,99.99
2018-08-11T06:03:46.308Z,99.99
2018-08-11T06:04:54.953Z,99.99
2018-08-11T06:06:03.849Z,99.99
2018-08-11T06:07:12.763Z,99.99
2018-08-11T06:08:21.403Z,99.99
2018-08-11T06:09:30.057Z,99.99
2018-08-11T06:10:38.790Z,99.99
2018-08-11T06:11:47.339Z,99.99
2018-08-11T06:12:55.979Z,99.99
2018-08-11T06:14:04.900Z,99.99
2018-08-11T06:15:13.535Z,99.99
2018-08-11T06:16:22.183Z,99.99
2018-08-11T06:17:31.097Z,99.99
2018-08-11T06:18:39.744Z,99.99
2018-08-11T06:19:48.383Z,99.99
2018-08-11T06:20:57.022Z,99.99
2018-08-11T06:22:05.970Z,99.99
2018-08-11T06:23:14.611Z,99.99
2018-08-11T06:24:23.263Z,99.99
2018-08-11T06:25:31.918Z,99.99
2018-08-11T06:26:40.566Z,99.99
2018-08-11T06:27:49.201Z,99.99
2018-08-11T06:28:57.855Z,99.99
2018-08-11T06:30:06.496Z,99.99
2018-08-11T06:31:15.186Z,99.99
2018-08-11T06:32:24.069Z,99.99
2018-08-11T06:33:32.984Z,99.99
2018-08-11T06:34:41.627Z,99.99
2018-08-11T06:35:50.534Z,99.99
2018-08-11T06:36:59.175Z,99.99
2018-08-11T06:38:07.823Z,99.99
2018-08-11T06:39:16.470Z,99.99
2018-08-11T06:40:25.403Z,99.99
2018-08-11T06:41:34.409Z,99.99
2018-08-11T06:42:43.050Z,99.99
2018-08-11T06:43:51.958Z,99.62
2018-08-11T06:45:00.602Z,99.81
2018-08-11T06:46:09.248Z,98.95
2018-08-11T06:47:17.886Z,99.52
2018-08-11T06:48:26.529Z,99.15
2018-08-11T06:49:35.173Z,98.66
2018-08-11T06:50:43.822Z,99.43
2018-08-11T06:51:52.467Z,99.05
2018-08-11T06:53:01.119Z,99.24
2018-08-11T06:54:09.757Z,99.19
2018-08-11T06:55:18.413Z,98.33
2018-08-11T06:56:27.318Z,98.52
2018-08-11T06:57:35.963Z,98.24
2018-08-11T06:58:44.606Z,97.85
2018-08-11T06:59:53.249Z,98.43
2018-08-11T07:01:01.900Z,98.14
2018-08-11T07:02:10.544Z,97.85
2018-08-11T07:03:19.452Z,97.28
2018-08-11T07:04:28.096Z,96.89
2018-08-11T07:05:36.740Z,96.22
2018-08-11T07:06:45.423Z,97.14
2018-08-11T07:07:54.036Z,96.89
2018-08-11T07:09:02.673Z,97.28
2018-08-11T07:10:11.319Z,96.56
2018-08-11T07:11:19.963Z,96.75
2018-08-11T07:12:29.139Z,96.84
2018-08-11T07:13:38.039Z,96.37
2018-08-11T07:14:46.686Z,96.56
2018-08-11T07:15:55.331Z,96.84
2018-08-11T07:17:03.978Z,97.04
2018-08-11T07:18:12.628Z,97.52
2018-08-11T07:19:21.266Z,96.75
2018-08-11T07:20:29.914Z,95.98
2018-08-11T07:21:38.855Z,96.32
2018-08-11T07:22:47.761Z,96.22
2018-08-11T07:23:56.661Z,96.27
2018-08-11T07:25:05.307Z,96.47
2018-08-11T07:26:13.956Z,95.79
2018-08-11T07:27:22.601Z,95.41
2018-08-11T07:28:31.505Z,95.03
2018-08-11T07:29:40.175Z,95.22
2018-08-11T07:30:48.799Z,94.64
2018-08-11T07:31:57.451Z,93.49
2018-08-11T07:33:06.095Z,93.49
2018-08-11T07:34:14.734Z,94.26
2018-08-11T07:35:23.642Z,93.21
2018-08-11T07:36:32.314Z,93.69
2018-08-11T07:37:41.319Z,93.16
2018-08-11T07:38:49.960Z,93.3
2018-08-11T07:39:58.610Z,92.68
2018-08-11T07:41:07.243Z,91.91
2018-08-11T07:42:15.894Z,91.82
2018-08-11T07:43:24.542Z,91.82
2018-08-11T07:44:33.186Z,91.43
2018-08-11T07:45:41.824Z,91.43
2018-08-11T07:46:50.480Z,91.14
2018-08-11T07:47:59.125Z,91.86
2018-08-11T07:49:07.772Z,90.81
2018-08-11T07:50:16.470Z,90.23
2018-08-11T07:51:25.058Z,90.42
2018-08-11T07:52:33.709Z,90.52
2018-08-11T07:53:42.384Z,90.71
2018-08-11T07:54:51.004Z,90.61
2018-08-11T07:55:59.706Z,90.14
2018-08-11T07:57:08.297Z,89.56
2018-08-11T07:58:16.938Z,89.27
2018-08-11T07:59:25.623Z,89.37
2018-08-11T08:00:34.229Z,90.04
2018-08-11T08:01:42.878Z,90.81
2018-08-11T08:02:51.520Z,90.23
2018-08-11T08:04:00.173Z,89.37
2018-08-11T08:05:08.809Z,88.12
2018-08-11T08:06:17.456Z,88.02
2018-08-11T08:07:26.363Z,88.26
2018-08-11T08:08:35.017Z,88.93
2018-08-11T08:09:43.663Z,87.11
2018-08-11T08:10:52.306Z,87.01
2018-08-11T08:12:00.951Z,86.82
2018-08-11T08:13:10.128Z,86.15
2018-08-11T08:14:19.050Z,86.05
2018-08-11T08:15:27.690Z,86.25
2018-08-11T08:16:36.604Z,86.44
2018-08-11T08:17:45.245Z,85.67
2018-08-11T08:18:53.896Z,85.1
2018-08-11T08:20:02.538Z,85.04
2018-08-11T08:21:11.446Z,84.37
2018-08-11T08:22:20.349Z,85.24
2018-08-11T08:23:29.268Z,84.37
2018-08-11T08:24:37.910Z,83.26
2018-08-11T08:25:46.558Z,84.12
2018-08-11T08:26:55.291Z,83.64
2018-08-11T08:28:04.498Z,83.93
2018-08-11T08:29:13.147Z,81.63
2018-08-11T08:30:21.791Z,82.2
2018-08-11T08:31:30.440Z,80.57
2018-08-11T08:32:39.081Z,79.42
2018-08-11T08:33:47.751Z,80.09
2018-08-11T08:34:56.377Z,78.84
2018-08-11T08:36:05.033Z,80.09
2018-08-11T08:37:13.676Z,79.61
2018-08-11T08:38:22.323Z,79.42
2018-08-11T08:39:30.969Z,79.32
2018-08-11T08:40:39.617Z,79.52
2018-08-11T08:41:48.262Z,79.61
2018-08-11T08:42:57.458Z,78.55
2018-08-11T08:44:06.102Z,80.09
2018-08-11T08:45:15.019Z,79.32
2018-08-11T08:46:23.664Z,79.42
2018-08-11T08:47:32.801Z,80.28
2018-08-11T08:48:41.368Z,80.57
2018-08-11T08:49:50.012Z,81.05
2018-08-11T08:50:58.661Z,79.28
2018-08-11T08:52:07.306Z,79.32
2018-08-11T08:53:16.317Z,80.09
2018-08-11T08:54:24.894Z,78.99
2018-08-11T08:55:33.545Z,79.19
2018-08-11T08:56:42.195Z,77.56
2018-08-11T08:57:50.838Z,77.65
2018-08-11T08:58:59.485Z,79.47
2018-08-11T09:00:08.135Z,78.23
2018-08-11T09:01:16.773Z,79.47
2018-08-11T09:02:25.423Z,78.77
2018-08-11T09:03:34.328Z,79.63
2018-08-11T09:04:43.012Z,79.63
2018-08-11T09:05:51.626Z,80.11
2018-08-11T09:07:00.273Z,77.42
2018-08-11T09:08:08.920Z,78.32
2018-08-11T09:09:17.560Z,77.42
2018-08-11T09:10:26.474Z,77.9
2018-08-11T09:11:35.118Z,77.08
2018-08-11T09:12:43.771Z,76.4
2018-08-11T09:13:52.410Z,77.56
2018-08-11T09:15:01.057Z,75.92
2018-08-11T09:16:09.702Z,75.29
2018-08-11T09:17:18.354Z,75
2018-08-11T09:18:26.999Z,75
2018-08-11T09:19:35.740Z,76.34
2018-08-11T09:20:44.291Z,75.29
2018-08-11T09:21:52.941Z,74.9
2018-08-11T09:23:01.588Z,74.81
2018-08-11T09:24:10.235Z,74.9
2018-08-11T09:25:18.891Z,74.04
2018-08-11T09:26:27.593Z,74.17
2018-08-11T09:27:36.500Z,74.37
2018-08-11T09:28:45.143Z,74.55
2018-08-11T09:29:53.785Z,71.91
2018-08-11T09:31:02.437Z,73.06
2018-08-11T09:32:11.078Z,73.25
2018-08-11T09:33:19.724Z,73.15
2018-08-11T09:34:28.371Z,72.23
2018-08-11T09:35:37.022Z,72.58
2018-08-11T09:36:45.668Z,73.92
2018-08-11T09:37:54.838Z,74.88
2018-08-11T09:39:03.755Z,73.98
2018-08-11T09:40:12.402Z,75.42
2018-08-11T09:41:21.047Z,76.57
2018-08-11T09:42:29.692Z,76.57
2018-08-11T09:43:38.340Z,76.57
2018-08-11T09:44:46.990Z,76.48
2018-08-11T09:45:55.656Z,77.34
2018-08-11T09:47:04.569Z,74.46
2018-08-11T09:48:13.218Z,75.71
2018-08-11T09:49:21.860Z,74.55
2018-08-11T09:50:30.777Z,73.88
2018-08-11T09:51:39.425Z,72.06
2018-08-11T09:52:48.338Z,72.38
2018-08-11T09:53:56.978Z,73.06
2018-08-11T09:55:05.629Z,72.48
2018-08-11T09:56:14.274Z,70.56
2018-08-11T09:57:22.921Z,71.26
2018-08-11T09:58:31.565Z,70.4
2018-08-11T09:59:40.546Z,69.92
2018-08-11T10:00:49.194Z,69.92
2018-08-11T10:01:58.366Z,70.21
2018-08-11T10:03:07.016Z,71.08
2018-08-11T10:04:15.662Z,70.98
2018-08-11T10:05:24.310Z,72.29
2018-08-11T10:06:32.956Z,70.94
2018-08-11T10:07:41.608Z,71.81
2018-08-11T10:08:50.250Z,72.92
2018-08-11T10:09:58.896Z,72.64
2018-08-11T10:11:07.545Z,73.02
2018-08-11T10:12:16.195Z,72.83
2018-08-11T10:13:24.835Z,71.33
2018-08-11T10:14:33.487Z,72.09
2018-08-11T10:15:42.134Z,71.61
2018-08-11T10:16:50.788Z,70.3
2018-08-11T10:17:59.704Z,69.92
2018-08-11T10:19:08.350Z,68.86
2018-08-11T10:20:16.995Z,68.96
2018-08-11T10:21:25.634Z,67.99
2018-08-11T10:22:34.287Z,67.51
2018-08-11T10:23:42.935Z,67.42
2018-08-11T10:24:51.846Z,68.38
2018-08-11T10:26:00.488Z,67.8
2018-08-11T10:27:09.195Z,68.09
2018-08-11T10:28:18.062Z,69.06
2018-08-11T10:29:26.719Z,69.34
2018-08-11T10:30:35.353Z,67.99
2018-08-11T10:31:44.271Z,68.29
2018-08-11T10:32:52.917Z,67.45
2018-08-11T10:34:01.569Z,67.07
2018-08-11T10:35:10.205Z,65.75
2018-08-11T10:36:18.857Z,65.75
2018-08-11T10:37:27.508Z,66.14
2018-08-11T10:38:36.160Z,64.98
2018-08-11T10:39:44.826Z,65.17
2018-08-11T10:40:53.454Z,65.08
2018-08-11T10:42:02.105Z,65.53
2018-08-11T10:43:10.751Z,66.01
2018-08-11T10:44:19.407Z,66.01
2018-08-11T10:45:28.308Z,65.63
2018-08-11T10:46:36.958Z,64.82
2018-08-11T10:47:45.605Z,65.78
2018-08-11T10:48:54.262Z,66.55
2018-08-11T10:50:02.901Z,68.09
2018-08-11T10:51:11.813Z,67.22
2018-08-11T10:52:20.469Z,67.22
2018-08-11T10:53:29.115Z,67.22
2018-08-11T10:54:37.759Z,65.5
2018-08-11T10:55:46.405Z,65.2
2018-08-11T10:56:55.052Z,66.55
2018-08-11T10:58:03.703Z,65.88
2018-08-11T10:59:12.359Z,66.36
2018-08-11T11:00:21.008Z,66.07
2018-08-11T11:01:29.659Z,65.69
2018-08-11T11:02:38.300Z,66.27
2018-08-11T11:03:46.954Z,67.13
2018-08-11T11:04:55.597Z,66.27
2018-08-11T11:06:04.254Z,66.17
2018-08-11T11:07:12.894Z,66.07
2018-08-11T11:08:21.568Z,65.97
2018-08-11T11:09:30.890Z,66.88
2018-08-11T11:10:39.540Z,66.01
2018-08-11T11:11:48.180Z,63.22
2018-08-11T11:12:56.831Z,63.25
2018-08-11T11:14:05.482Z,62.38
2018-08-11T11:15:14.131Z,62.48
2018-08-11T11:16:22.787Z,62.67
2018-08-11T11:17:31.688Z,62.29
2018-08-11T11:18:40.340Z,62.6
2018-08-11T11:19:48.984Z,62.51
2018-08-11T11:20:57.730Z,62.32
2018-08-11T11:22:06.544Z,62.6
2018-08-11T11:23:15.198Z,62.41
2018-08-11T11:24:24.375Z,62.7
2018-08-11T11:25:33.027Z,63.28
2018-08-11T11:26:41.683Z,62.9
2018-08-11T11:27:50.330Z,64.21
2018-08-11T11:28:58.981Z,63.92
2018-08-11T11:30:07.628Z,64.69
2018-08-11T11:31:16.278Z,63.64
2018-08-11T11:32:24.926Z,63.73
2018-08-11T11:33:33.581Z,63.15
2018-08-11T11:34:42.494Z,65.46
2018-08-11T11:35:51.138Z,65.56
2018-08-11T11:36:59.786Z,65.37
2018-08-11T11:38:08.438Z,65.66
2018-08-11T11:39:17.093Z,63.28
2018-08-11T11:40:25.730Z,63.18
2018-08-11T11:41:34.383Z,61.87
2018-08-11T11:42:43.027Z,61
2018-08-11T11:43:51.680Z,61.71
2018-08-11T11:45:00.587Z,61.87
2018-08-11T11:46:09.505Z,61
2018-08-11T11:47:18.151Z,60.74
2018-08-11T11:48:27.068Z,61.51
2018-08-11T11:49:35.713Z,59.68
2018-08-11T11:50:44.362Z,61.13
2018-08-11T11:51:53.008Z,61.71
2018-08-11T11:53:01.655Z,59.97
2018-08-11T11:54:10.308Z,60.32
2018-08-11T11:55:18.957Z,60.52
2018-08-11T11:56:27.606Z,60.23
2018-08-11T11:57:36.257Z,60.42
2018-08-11T11:58:45.170Z,60.23
2018-08-11T11:59:53.870Z,59.75
2018-08-11T12:01:02.471Z,61.07
2018-08-11T12:02:11.481Z,61.07
2018-08-11T12:03:20.079Z,61.68
2018-08-11T12:04:28.725Z,61.48
2018-08-11T12:05:37.383Z,61.1
2018-08-11T12:06:46.025Z,61.19
2018-08-11T12:07:54.677Z,60.52
2018-08-11T12:09:03.328Z,60.45
2018-08-11T12:10:11.977Z,58.62
2018-08-11T12:11:20.628Z,59.87
2018-08-11T12:12:29.272Z,58.81
2018-08-11T12:13:37.923Z,60.64
2018-08-11T12:14:46.835Z,59.58
2018-08-11T12:15:55.489Z,58.49
2018-08-11T12:17:04.133Z,59.87
2018-08-11T12:18:12.782Z,60.71
2018-08-11T12:19:21.450Z,59.55
2018-08-11T12:20:30.085Z,60.42
2018-08-11T12:21:38.730Z,58.97
2018-08-11T12:22:47.382Z,58.4
2018-08-11T12:23:56.293Z,59.55
2018-08-11T12:25:04.953Z,60.32
2018-08-11T12:26:13.603Z,59.84
2018-08-11T12:27:22.245Z,59.55
2018-08-11T12:28:30.893Z,58.69
2018-08-11T12:29:39.540Z,59.55
2018-08-11T12:30:48.196Z,59
2018-08-11T12:31:57.106Z,60.74
2018-08-11T12:33:06.025Z,58.14
2018-08-11T12:34:14.664Z,58.81
2018-08-11T12:35:23.589Z,58.91
2018-08-11T12:36:32.762Z,57.85
2018-08-11T12:37:41.418Z,59.68
2018-08-11T12:38:50.057Z,58.14
2018-08-11T12:39:58.711Z,58.62
2018-08-11T12:41:07.358Z,57.85
2018-08-11T12:42:16.008Z,57.59
2018-08-11T12:43:24.646Z,56.43
2018-08-11T12:44:33.298Z,57.59
2018-08-11T12:45:41.955Z,56.72
2018-08-11T12:46:50.605Z,55.56
2018-08-11T12:47:59.525Z,56.16
2018-08-11T12:49:08.166Z,56.36
2018-08-11T12:50:16.815Z,55.68
2018-08-11T12:51:25.458Z,55.68
2018-08-11T12:52:34.126Z,55.01
2018-08-11T12:53:43.031Z,55.13
2018-08-11T12:54:51.690Z,54.46
2018-08-11T12:56:00.334Z,54.46
2018-08-11T12:57:08.991Z,55.71
2018-08-11T12:58:17.632Z,55.33
2018-08-11T12:59:26.277Z,55.62
2018-08-11T13:00:34.927Z,54.46
2018-08-11T13:01:43.693Z,56.39
2018-08-11T13:02:52.236Z,56.39
2018-08-11T13:04:00.881Z,55.42
2018-08-11T13:05:09.530Z,54.36
2018-08-11T13:06:18.443Z,54.46
2018-08-11T13:07:27.101Z,53.88
2018-08-11T13:08:35.746Z,53.69
2018-08-11T13:09:44.402Z,53.88
2018-08-11T13:10:53.045Z,53.78
2018-08-11T13:12:01.700Z,54
2018-08-11T13:13:10.356Z,53.71
2018-08-11T13:14:19.010Z,53.13
2018-08-11T13:15:27.652Z,53.52
2018-08-11T13:16:36.583Z,53.23
2018-08-11T13:17:45.229Z,53.03
2018-08-11T13:18:53.881Z,52.36
2018-08-11T13:20:02.525Z,53.71
2018-08-11T13:21:11.178Z,51.87
2018-08-11T13:22:19.830Z,50.13
2018-08-11T13:23:28.476Z,50.52
2018-08-11T13:24:37.383Z,52.07
2018-08-11T13:25:46.310Z,50.81
2018-08-11T13:26:54.957Z,50.91
2018-08-11T13:28:03.610Z,51.17
2018-08-11T13:29:12.513Z,52.14
2018-08-11T13:30:21.174Z,52.62
2018-08-11T13:31:29.817Z,52.81
2018-08-11T13:32:38.474Z,53.78
2018-08-11T13:33:47.121Z,52.53
2018-08-11T13:34:55.781Z,53.49
2018-08-11T13:36:04.432Z,51.56
2018-08-11T13:37:13.085Z,51.46
2018-08-11T13:38:21.987Z,52.14
2018-08-11T13:39:30.639Z,51.75
2018-08-11T13:40:39.299Z,53.01
2018-08-11T13:41:48.210Z,52.33
2018-08-11T13:42:56.862Z,52.53
2018-08-11T13:44:05.503Z,53.01
2018-08-11T13:45:14.160Z,52.14
2018-08-11T13:46:22.808Z,51.73
2018-08-11T13:47:31.461Z,52.14
2018-08-11T13:48:40.104Z,52.01
2018-08-11T13:49:48.841Z,51.82
2018-08-11T13:50:57.407Z,51.73
2018-08-11T13:52:06.329Z,51.27
2018-08-11T13:53:15.233Z,52.14
2018-08-11T13:54:23.975Z,51.37
2018-08-11T13:55:32.530Z,51.17
2018-08-11T13:56:41.187Z,50.31
2018-08-11T13:57:49.835Z,50.59
2018-08-11T13:58:58.478Z,48.11
2018-08-11T14:00:07.125Z,49.82
2018-08-11T14:01:16.037Z,49.07
2018-08-11T14:02:24.704Z,49.95
2018-08-11T14:03:33.347Z,48.39
2018-08-11T14:04:42.272Z,47.53
2018-08-11T14:05:50.911Z,48.79
2018-08-11T14:06:59.574Z,49.63
2018-08-11T14:08:08.222Z,50.31
2018-08-11T14:09:17.144Z,51.56
2018-08-11T14:10:25.782Z,50.69
2018-08-11T14:11:34.445Z,51.07
2018-08-11T14:12:43.095Z,51.37
2018-08-11T14:13:51.750Z,50.43
2018-08-11T14:15:00.447Z,49.55
2018-08-11T14:16:09.308Z,49.65
2018-08-11T14:17:17.967Z,53.91
2018-08-11T14:18:26.617Z,50.81
2018-08-11T14:19:35.273Z,48.39
2018-08-11T14:20:43.913Z,48.59
2018-08-11T14:21:52.568Z,48.11
2018-08-11T14:23:01.218Z,47.53
2018-08-11T14:24:10.137Z,47.63
2018-08-11T14:25:18.787Z,48.01
2018-08-11T14:26:27.437Z,48.69
2018-08-11T14:27:36.089Z,49.34
2018-08-11T14:28:44.745Z,49.53
2018-08-11T14:29:53.391Z,49.15
2018-08-11T14:31:02.043Z,49.53
2018-08-11T14:32:10.693Z,49.6
2018-08-11T14:33:19.348Z,49.32
2018-08-11T14:34:28.004Z,50.86
2018-08-11T14:35:37.201Z,51.34
2018-08-11T14:36:45.847Z,50.18
2018-08-11T14:37:54.496Z,51.25
2018-08-11T14:39:03.150Z,50.96
2018-08-11T14:40:11.800Z,49.24
2018-08-11T14:41:20.454Z,48.47
2018-08-11T14:42:29.102Z,48.08
2018-08-11T14:43:38.020Z,47.43
2018-08-11T14:44:46.670Z,47.14
2018-08-11T14:45:55.327Z,47.33
2018-08-11T14:47:03.970Z,47.72